Time;durP1;ratioP1;P1;durP2;ratioP2;P2;SDS_P1;SDS_P2;PMS_P1;PMS_P2;Temp;Humidity;BMP_temperature;BMP_pressure;BME280_temperature;BME280_humidity;BME280_pressure;Samples;Min_cycle;Max_cycle;Signal;HPM_P1;HPM_P2
2021/03/29 00:00:06;;;;;;;11.43;3.67;;;;;;;12.36;50.67;101366.88;5084283;28;20443;-61
2021/03/29 00:02:32;;;;;;;9.50;3.63;;;;;;;12.36;50.92;101377.59;5084132;28;20879;-60
2021/03/29 00:04:59;;;;;;;7.13;3.50;;;;;;;12.28;50.86;101380.91;5084388;28;20447;-60
2021/03/29 00:07:27;;;;;;;8.60;3.57;;;;;;;12.43;50.59;101385.03;5085439;28;20514;-60
2021/03/29 00:09:54;;;;;;;11.23;3.90;;;;;;;12.42;50.55;101382.47;5083836;28;20443;-60
2021/03/29 00:12:21;;;;;;;10.33;5.03;;;;;;;12.31;51.00;101383.38;5083320;28;20475;-60
2021/03/29 00:14:47;;;;;;;10.67;4.10;;;;;;;12.40;50.87;101379.94;5084085;28;21260;-59
2021/03/29 00:17:14;;;;;;;13.53;4.43;;;;;;;12.26;51.37;101398.13;5083870;27;20482;-60
2021/03/29 00:19:42;;;;;;;9.50;3.53;;;;;;;12.36;51.22;101382.97;5084420;28;20431;-60
2021/03/29 00:22:09;;;;;;;6.97;3.63;;;;;;;12.23;51.32;101381.28;5086958;28;20528;-60
2021/03/29 00:24:36;;;;;;;8.87;3.83;;;;;;;12.23;51.17;101377.75;5084014;28;20444;-60
2021/03/29 00:27:03;;;;;;;11.70;4.43;;;;;;;12.26;51.16;101385.56;5083763;28;20571;-59
2021/03/29 00:29:30;;;;;;;12.13;5.33;;;;;;;12.27;50.99;101371.16;5084019;28;20872;-60
2021/03/29 00:31:57;;;;;;;8.43;4.83;;;;;;;12.38;50.97;101383.72;5099271;28;20583;-60
2021/03/29 00:34:23;;;;;;;10.27;3.77;;;;;;;12.05;51.55;101377.41;5086365;28;20494;-60
2021/03/29 00:36:50;;;;;;;8.57;3.80;;;;;;;12.31;51.45;101375.31;5082868;28;21004;-59
2021/03/29 00:39:18;;;;;;;11.50;4.50;;;;;;;12.31;51.36;101386.03;5083109;28;20436;-60
2021/03/29 00:41:45;;;;;;;10.03;4.53;;;;;;;12.13;51.90;101379.47;5082903;28;20895;-59
2021/03/29 00:44:12;;;;;;;8.33;4.33;;;;;;;12.27;51.27;101379.19;5083222;28;20471;-60
2021/03/29 00:46:39;;;;;;;16.13;4.87;;;;;;;12.22;51.81;101384.09;5082903;28;20519;-60
2021/03/29 00:49:05;;;;;;;13.70;4.60;;;;;;;12.00;51.97;101388.50;5082936;28;20506;-60
2021/03/29 00:51:35;;;;;;;6.30;3.63;;;;;;;12.18;51.43;101382.63;5082667;28;20510;-60
2021/03/29 00:54:03;;;;;;;18.03;5.70;;;;;;;12.20;51.85;101389.59;5085994;28;20513;-60
2021/03/29 00:56:31;;;;;;;10.30;5.27;;;;;;;12.13;52.00;101393.72;5083158;28;20484;-60
2021/03/29 00:58:58;;;;;;;12.07;4.60;;;;;;;12.08;52.04;101385.19;5082978;28;20459;-60
2021/03/29 01:01:27;;;;;;;10.03;4.20;;;;;;;12.11;52.02;101389.47;5082006;28;20499;-60
2021/03/29 01:03:55;;;;;;;16.60;5.67;;;;;;;11.91;52.13;101391.91;5082388;28;20455;-60
2021/03/29 01:06:23;;;;;;;11.63;4.70;;;;;;;11.93;52.53;101383.75;5081556;28;20483;-60
2021/03/29 01:08:51;;;;;;;11.70;4.80;;;;;;;11.93;52.91;101383.75;5081701;28;20530;-60
2021/03/29 01:11:20;;;;;;;11.83;4.13;;;;;;;11.69;53.50;101379.31;5081990;28;20483;-60
2021/03/29 01:13:52;;;;;;;11.80;5.03;;;;;;;11.94;52.60;101383.59;5083174;28;20452;-60
2021/03/29 01:16:20;;;;;;;11.53;4.77;;;;;;;11.84;53.41;101383.47;5082253;28;20479;-60
2021/03/29 01:18:48;;;;;;;13.10;4.97;;;;;;;12.02;52.97;101380.34;5083356;28;20431;-59
2021/03/29 01:21:32;;;;;;;8.63;5.10;;;;;;;11.95;52.97;101374.59;5081570;28;20569;-60
2021/03/29 01:24:04;;;;;;;10.33;4.60;;;;;;;11.84;53.46;101378.09;5083481;28;20459;-60
2021/03/29 01:26:34;;;;;;;11.90;5.07;;;;;;;11.91;53.23;101378.50;5081848;28;20487;-60
2021/03/29 01:29:01;;;;;;;10.50;5.40;;;;;;;11.68;53.55;101374.91;5083196;28;20472;-60
2021/03/29 01:31:27;;;;;;;10.80;5.07;;;;;;;11.52;54.01;101371.75;5081942;28;20887;-60
2021/03/29 01:33:54;;;;;;;11.23;5.57;;;;;;;11.63;53.70;101369.06;5082454;28;20987;-60
2021/03/29 01:36:20;;;;;;;9.70;5.53;;;;;;;11.62;53.71;101367.38;5082085;28;20484;-59
2021/03/29 01:38:48;;;;;;;11.17;5.13;;;;;;;11.53;53.97;101363.59;5098912;28;20446;-60
2021/03/29 01:41:14;;;;;;;14.23;5.23;;;;;;;11.47;54.22;101356.00;5080738;28;20480;-60
2021/03/29 01:43:42;;;;;;;10.30;4.40;;;;;;;11.46;53.83;101352.50;5082389;28;20452;-60
2021/03/29 01:46:08;;;;;;;11.27;5.40;;;;;;;11.38;54.35;101356.75;5081333;28;20490;-60
2021/03/29 01:48:35;;;;;;;17.53;5.13;;;;;;;11.35;53.97;101367.69;5082677;28;20468;-62
2021/03/29 01:51:02;;;;;;;11.17;5.60;;;;;;;11.49;54.14;101365.66;5081047;28;20472;-62
2021/03/29 01:53:29;;;;;;;10.00;4.77;;;;;;;11.34;54.11;101368.66;5082630;28;20494;-63
2021/03/29 01:55:55;;;;;;;12.27;5.53;;;;;;;11.10;54.48;101349.00;5081513;28;20479;-62
2021/03/29 01:58:22;;;;;;;16.00;5.53;;;;;;;11.44;53.68;101353.56;5082438;28;20459;-62
2021/03/29 02:00:51;;;;;;;12.47;5.00;;;;;;;11.24;54.38;101349.78;5080993;28;20480;-62
2021/03/29 02:03:19;;;;;;;17.20;5.40;;;;;;;11.25;54.30;101351.50;5082088;28;21029;-62
2021/03/29 02:05:46;;;;;;;14.50;5.60;;;;;;;11.40;53.30;101341.41;5081759;28;20506;-63
2021/03/29 02:08:12;;;;;;;12.83;5.83;;;;;;;11.30;53.99;101355.50;5080870;28;20484;-62
2021/03/29 02:10:40;;;;;;;16.30;5.63;;;;;;;11.40;53.46;101355.63;5081260;28;20471;-62
2021/03/29 02:13:06;;;;;;;11.63;5.50;;;;;;;11.19;53.72;101360.81;5081815;28;20447;-62
2021/03/29 02:15:33;;;;;;;10.77;4.80;;;;;;;11.49;53.31;101352.25;5081580;28;20521;-63
2021/03/29 02:18:03;;;;;;;12.40;5.60;;;;;;;11.63;52.70;101356.53;5081552;28;20440;-63
2021/03/29 02:20:32;;;;;;;12.77;5.27;;;;;;;11.43;52.96;101358.09;5081174;28;20939;-60
2021/03/29 02:22:59;;;;;;;13.70;5.30;;;;;;;11.56;52.26;101360.69;5083747;28;20487;-60
2021/03/29 02:25:27;;;;;;;10.60;5.77;;;;;;;11.62;52.38;101359.34;5081611;28;20478;-60
2021/03/29 02:27:54;;;;;;;14.30;5.50;;;;;;;11.67;52.29;101362.50;5072784;28;20495;-60
2021/03/29 02:30:22;;;;;;;22.10;5.97;;;;;;;11.29;52.67;101369.84;5060862;28;20437;-60
2021/03/29 02:32:49;;;;;;;13.90;5.10;;;;;;;11.61;52.12;101376.38;5064095;28;20518;-60
2021/03/29 02:35:19;;;;;;;10.67;5.63;;;;;;;11.25;53.15;101373.75;5061257;28;20457;-60
2021/03/29 02:37:48;;;;;;;11.80;5.10;;;;;;;11.39;52.91;101377.19;5061266;28;20444;-60
2021/03/29 02:40:15;;;;;;;14.10;5.53;;;;;;;11.62;51.85;101373.56;5060926;28;20429;-59
2021/03/29 02:42:41;;;;;;;14.33;5.00;;;;;;;11.31;52.61;101372.41;5061236;28;20472;-59
2021/03/29 02:45:09;;;;;;;10.93;5.07;;;;;;;11.16;53.16;101371.75;5060776;28;20848;-60
2021/03/29 02:47:36;;;;;;;15.27;5.67;;;;;;;11.06;53.58;101376.13;5070370;28;20481;-60
2021/03/29 02:50:07;;;;;;;15.33;5.10;;;;;;;10.98;53.41;101371.34;5061407;28;20475;-60
2021/03/29 02:52:34;;;;;;;12.93;5.07;;;;;;;11.03;53.44;101366.50;5061513;28;20464;-59
2021/03/29 02:55:01;;;;;;;13.63;5.40;;;;;;;11.03;52.99;101371.00;5061646;28;20461;-60
2021/03/29 02:57:27;;;;;;;7.13;4.87;;;;;;;10.73;53.63;101375.00;5060652;28;20472;-59
2021/03/29 02:59:54;;;;;;;11.53;5.60;;;;;;;10.96;53.14;101359.06;5041310;28;20453;-59
2021/03/29 03:02:20;;;;;;;13.93;5.40;;;;;;;10.88;53.35;101370.31;5059139;28;20492;-60
2021/03/29 03:04:47;;;;;;;12.83;6.60;;;;;;;10.82;53.59;101374.31;5061577;28;20432;-60
2021/03/29 03:07:13;;;;;;;10.10;5.13;;;;;;;10.92;53.25;101370.00;5078148;28;20480;-60
2021/03/29 03:09:42;;;;;;;8.90;5.60;;;;;;;11.15;52.78;101370.06;5080614;28;20456;-60
2021/03/29 03:12:10;;;;;;;11.70;5.27;;;;;;;10.84;53.66;101367.03;5080254;28;20475;-59
2021/03/29 03:14:36;;;;;;;12.27;5.40;;;;;;;10.87;53.12;101373.97;5085884;28;20444;-59
2021/03/29 03:17:03;;;;;;;11.23;5.00;;;;;;;11.09;52.58;101373.19;5084976;28;20521;-59
2021/03/29 03:19:29;;;;;;;10.20;4.93;;;;;;;11.24;51.94;101369.34;5085748;28;20445;-60
2021/03/29 03:21:55;;;;;;;9.67;5.07;;;;;;;11.06;52.49;101366.28;5086162;28;20475;-59
2021/03/29 03:24:33;;;;;;;11.17;5.83;;;;;;;11.27;51.92;101373.63;5105942;28;20426;-59
2021/03/29 03:27:05;;;;;;;14.90;5.80;;;;;;;10.99;52.79;101364.16;5091397;28;21003;-60
2021/03/29 03:29:33;;;;;;;14.47;5.20;;;;;;;11.12;52.03;101373.81;5084786;28;20522;-63
2021/03/29 03:31:59;;;;;;;16.67;5.70;;;;;;;11.25;51.84;101370.22;5092957;28;20558;-62
2021/03/29 03:34:25;;;;;;;12.67;5.67;;;;;;;11.18;51.67;101369.84;5105895;28;20442;-62
2021/03/29 03:36:52;;;;;;;18.43;6.00;;;;;;;10.96;52.70;101370.59;5093504;28;20479;-62
2021/03/29 03:39:18;;;;;;;14.83;5.70;;;;;;;11.00;52.33;101357.84;5084662;28;20452;-62
2021/03/29 03:41:45;;;;;;;11.27;4.60;;;;;;;10.90;52.64;101360.34;5084041;28;20900;-62
2021/03/29 03:44:12;;;;;;;10.73;5.20;;;;;;;11.02;52.15;101367.44;5084733;28;20502;-62
2021/03/29 03:46:39;;;;;;;9.47;5.30;;;;;;;10.92;52.37;101359.28;5084011;28;20479;-61
2021/03/29 03:49:09;;;;;;;11.80;5.50;;;;;;;11.09;52.23;101359.81;5085143;28;20495;-62
2021/03/29 03:51:35;;;;;;;11.67;5.87;;;;;;;10.84;52.55;101377.72;5083058;28;21091;-62
2021/03/29 03:54:02;;;;;;;10.80;4.57;;;;;;;10.80;52.71;101380.72;5102677;28;20455;-62
2021/03/29 03:56:31;;;;;;;13.73;5.60;;;;;;;10.79;52.73;101384.41;5083057;28;20503;-62
2021/03/29 03:58:57;;;;;;;7.33;5.10;;;;;;;10.67;53.06;101375.44;5084161;28;20950;-62
2021/03/29 04:01:25;;;;;;;17.93;5.47;;;;;;;10.69;53.15;101376.19;5083053;28;20475;-62
2021/03/29 04:03:51;;;;;;;11.27;5.00;;;;;;;10.84;52.63;101375.06;5084159;28;20791;-62
2021/03/29 04:06:17;;;;;;;19.20;5.97;;;;;;;10.74;52.67;101376.69;5083841;28;20482;-62
2021/03/29 04:08:45;;;;;;;17.27;5.43;;;;;;;10.64;52.99;101378.34;5083302;28;20492;-62
2021/03/29 04:11:11;;;;;;;10.27;4.93;;;;;;;10.81;52.66;101369.06;5092195;28;20482;-62
2021/03/29 04:13:38;;;;;;;13.70;5.50;;;;;;;10.84;52.50;101369.69;5104351;28;20965;-62
2021/03/29 04:16:06;;;;;;;15.10;5.80;;;;;;;10.80;52.65;101368.25;5094354;28;20921;-63
2021/03/29 04:18:33;;;;;;;14.40;5.43;;;;;;;10.68;53.02;101358.44;5084164;28;20447;-63
2021/03/29 04:21:00;;;;;;;10.97;5.80;;;;;;;10.79;52.67;101349.63;5098481;28;20462;-62
2021/03/29 04:23:28;;;;;;;10.73;6.07;;;;;;;10.49;53.21;101354.44;5103476;28;20469;-62
2021/03/29 04:25:55;;;;;;;11.60;5.07;;;;;;;10.69;52.88;101361.00;5087522;28;20472;-62
2021/03/29 04:28:22;;;;;;;10.90;4.73;;;;;;;10.79;52.75;101368.34;5089565;28;20486;-62
2021/03/29 04:30:48;;;;;;;11.13;5.43;;;;;;;10.70;52.85;101375.22;5103411;28;20467;-62
2021/03/29 04:33:15;;;;;;;12.40;4.47;;;;;;;10.63;53.01;101366.81;5104034;28;20461;-62
2021/03/29 04:35:42;;;;;;;12.07;5.13;;;;;;;10.65;52.56;101367.53;5090950;28;20499;-63
2021/03/29 04:38:08;;;;;;;12.17;4.87;;;;;;;10.76;52.47;101368.56;5083256;28;20463;-63
2021/03/29 04:40:34;;;;;;;12.47;5.23;;;;;;;10.71;52.76;101366.22;5083701;28;20471;-63
2021/03/29 04:43:01;;;;;;;16.43;5.20;;;;;;;10.88;52.70;101373.88;5089628;28;20452;-62
2021/03/29 04:45:27;;;;;;;11.63;5.10;;;;;;;10.81;52.23;101369.91;5082763;28;20482;-62
2021/03/29 04:47:54;;;;;;;14.63;5.40;;;;;;;10.75;52.35;101362.38;5081948;28;20471;-63
2021/03/29 04:50:22;;;;;;;13.50;5.60;;;;;;;10.98;51.90;101374.00;5082788;28;20448;-62
2021/03/29 04:52:49;;;;;;;13.10;5.27;;;;;;;11.19;51.62;101376.03;5092305;28;20447;-62
2021/03/29 04:55:16;;;;;;;10.93;5.07;;;;;;;11.10;51.45;101374.91;5103110;28;20824;-63
2021/03/29 04:57:43;;;;;;;13.93;6.10;;;;;;;11.04;52.13;101375.38;5086693;28;20452;-62
2021/03/29 05:00:10;;;;;;;12.27;4.97;;;;;;;11.15;51.01;101372.75;5092317;28;20482;-62
2021/03/29 05:02:37;;;;;;;11.73;4.77;;;;;;;11.14;51.53;101373.69;5084262;28;20664;-63
2021/03/29 05:05:04;;;;;;;10.70;5.00;;;;;;;11.34;50.85;101374.88;5081920;28;20428;-62
2021/03/29 05:07:30;;;;;;;12.60;6.47;;;;;;;11.24;50.80;101360.47;5080385;28;20456;-63
2021/03/29 05:09:57;;;;;;;13.23;4.87;;;;;;;11.32;50.67;101368.78;5080141;28;20471;-62
2021/03/29 05:12:23;;;;;;;12.57;5.23;;;;;;;11.33;51.41;101366.94;5081019;28;20487;-63
2021/03/29 05:14:51;;;;;;;11.20;5.40;;;;;;;11.37;51.29;101376.44;5082210;28;20871;-62
2021/03/29 05:17:17;;;;;;;7.10;4.40;;;;;;;11.73;49.70;101388.81;5080695;28;20472;-62
2021/03/29 05:19:43;;;;;;;10.97;5.10;;;;;;;11.42;50.66;101376.94;5082544;28;20447;-62
2021/03/29 05:22:10;;;;;;;15.30;5.90;;;;;;;11.43;50.21;101381.34;5082195;28;20541;-63
2021/03/29 05:24:37;;;;;;;10.47;4.73;;;;;;;11.26;50.83;101388.81;5079975;28;20452;-62
2021/03/29 05:27:05;;;;;;;14.77;5.83;;;;;;;11.50;50.08;101377.22;5081449;28;21028;-62
2021/03/29 05:29:40;;;;;;;13.17;5.33;;;;;;;11.59;50.25;101378.31;5081553;28;20482;-63
2021/03/29 05:32:15;;;;;;;12.23;5.20;;;;;;;11.53;50.36;101381.47;5080780;28;20479;-63
2021/03/29 05:34:41;;;;;;;10.00;4.80;;;;;;;11.48;50.45;101395.22;5081544;28;20440;-63
2021/03/29 05:37:08;;;;;;;18.60;4.90;;;;;;;11.31;50.46;101389.31;5085013;28;20475;-63
2021/03/29 05:39:34;;;;;;;10.43;4.87;;;;;;;11.27;50.65;101398.56;5083316;28;20468;-62
2021/03/29 05:42:00;;;;;;;9.57;4.50;;;;;;;11.39;50.29;101393.28;5080996;28;20621;-63
2021/03/29 05:44:28;;;;;;;10.83;4.23;;;;;;;11.57;49.95;101386.47;5081003;28;20456;-62
2021/03/29 05:46:54;;;;;;;11.70;4.70;;;;;;;11.67;49.84;101390.16;5080206;28;20476;-62
2021/03/29 05:49:20;;;;;;;16.90;5.13;;;;;;;11.65;49.54;101389.41;5081486;28;20479;-62
2021/03/29 05:51:46;;;;;;;9.10;3.60;;;;;;;11.68;49.33;101388.31;5085789;28;20475;-62
2021/03/29 05:54:13;;;;;;;9.67;4.27;;;;;;;12.13;48.62;101388.34;5087747;28;20827;-63
2021/03/29 05:56:40;;;;;;;10.93;4.00;;;;;;;12.79;47.52;101399.09;5080459;28;21040;-62
2021/03/29 05:59:13;;;;;;;7.73;3.97;;;;;;;12.99;46.04;101391.22;5080980;28;20458;-60
2021/03/29 06:01:45;;;;;;;7.57;3.50;;;;;;;13.32;45.20;101379.50;5079488;28;20506;-60
2021/03/29 06:04:12;;;;;;;13.33;4.03;;;;;;;14.39;43.26;101380.97;5081396;28;20443;-60
2021/03/29 06:06:39;;;;;;;5.40;3.60;;;;;;;14.79;42.10;101390.84;5079296;28;20541;-61
2021/03/29 06:09:06;;;;;;;10.10;4.63;;;;;;;14.93;41.59;101401.22;5080533;28;20498;-61
2021/03/29 06:11:34;;;;;;;8.93;3.87;;;;;;;15.63;40.26;101401.88;5080655;28;20475;-60
2021/03/29 06:14:08;;;;;;;10.80;3.67;;;;;;;15.11;40.73;101404.06;5081235;28;20444;-61
2021/03/29 06:16:52;;;;;;;13.73;4.10;;;;;;;14.84;41.72;101402.06;5080133;28;20488;-61
2021/03/29 06:19:34;;;;;;;10.90;4.10;;;;;;;14.72;42.06;101406.75;5081361;28;20452;-61
2021/03/29 06:22:10;;;;;;;8.07;4.00;;;;;;;15.26;40.39;101412.56;5082507;28;20468;-61
2021/03/29 06:24:59;;;;;;;8.87;4.60;;;;;;;13.75;44.12;101401.84;5100969;28;20457;-60
2021/03/29 06:27:27;;;;;;;10.10;3.90;;;;;;;13.89;43.79;101404.16;5100942;28;20864;-60
2021/03/29 06:30:12;;;;;;;8.57;3.30;;;;;;;13.75;44.53;101396.47;5094304;28;20466;-61
2021/03/29 06:32:54;;;;;;;12.67;4.10;;;;;;;15.61;41.07;101401.16;5055468;28;20457;-59
2021/03/29 06:35:23;;;;;;;7.70;3.23;;;;;;;15.01;41.91;101409.44;5005705;28;20514;-62
2021/03/29 06:37:50;;;;;;;6.43;3.23;;;;;;;14.39;42.79;101402.50;5007575;28;20478;-61
2021/03/29 06:40:16;;;;;;;6.87;3.33;;;;;;;13.76;44.21;101403.50;4999454;28;20951;-61
2021/03/29 06:42:43;;;;;;;11.80;3.70;;;;;;;13.83;44.61;101426.19;5023788;28;20819;-63
2021/03/29 06:45:11;;;;;;;6.50;3.30;;;;;;;13.93;44.31;101420.88;5036332;28;20474;-62
2021/03/29 06:47:37;;;;;;;8.80;3.80;;;;;;;14.21;43.97;101429.22;5036208;28;20654;-61
2021/03/29 06:50:05;;;;;;;9.13;3.90;;;;;;;15.24;41.72;101425.31;5037247;28;20434;-60
2021/03/29 06:52:33;;;;;;;12.50;3.90;;;;;;;16.38;39.24;101431.56;5043341;28;20794;-59
2021/03/29 06:55:18;;;;;;;9.10;3.13;;;;;;;18.62;34.87;101428.63;5041209;28;20809;-59
2021/03/29 06:57:44;;;;;;;7.20;3.20;;;;;;;18.93;33.74;101430.78;5036979;28;21023;-60
2021/03/29 07:00:14;;;;;;;11.70;3.30;;;;;;;19.35;33.11;101428.97;5035835;28;21049;-60
2021/03/29 07:02:41;;;;;;;11.83;3.63;;;;;;;20.03;32.86;101433.16;5037105;28;20545;-61
2021/03/29 07:05:10;;;;;;;5.90;3.00;;;;;;;19.95;31.65;101427.75;5037078;28;20466;-62
2021/03/29 07:07:37;;;;;;;8.17;3.30;;;;;;;20.77;30.97;101435.56;5035604;28;20441;-62
2021/03/29 07:10:06;;;;;;;8.00;3.07;;;;;;;19.48;32.79;101425.75;5037576;28;20466;-60
2021/03/29 07:12:37;;;;;;;9.53;3.07;;;;;;;20.53;31.41;101432.97;5047694;28;20531;-62
2021/03/29 07:15:07;;;;;;;4.77;2.80;;;;;;;19.34;33.24;101433.53;5059072;28;20472;-61
2021/03/29 07:17:36;;;;;;;11.50;2.93;;;;;;;21.00;30.83;101429.31;5066677;28;20471;-60
2021/03/29 07:20:04;;;;;;;8.17;2.93;;;;;;;21.15;30.45;101437.53;5066226;28;20455;-62
2021/03/29 07:22:31;;;;;;;5.70;2.70;;;;;;;19.19;33.38;101437.94;5058196;28;20480;-60
2021/03/29 07:25:02;;;;;;;7.80;3.20;;;;;;;20.10;32.27;101439.59;5059316;28;20429;-61
2021/03/29 07:27:29;;;;;;;6.07;3.50;;;;;;;20.00;32.42;101438.94;5058918;28;20993;-61
2021/03/29 07:29:56;;;;;;;7.07;2.70;;;;;;;20.87;31.53;101443.50;5047192;28;20473;-61
2021/03/29 07:32:33;;;;;;;10.07;3.03;;;;;;;19.58;33.30;101439.97;5069788;28;20816;-60
2021/03/29 07:34:59;;;;;;;8.10;2.70;;;;;;;19.60;34.08;101458.78;5079376;28;20452;-60
2021/03/29 07:37:28;;;;;;;6.83;2.50;;;;;;;18.86;34.72;101451.44;5082935;28;20585;-62
2021/03/29 07:39:55;;;;;;;22.47;3.60;;;;;;;19.08;34.37;101460.81;5087666;28;20444;-62
2021/03/29 07:42:39;;;;;;;12.00;3.37;;;;;;;21.24;31.05;101463.66;5074706;28;20487;-65
2021/03/29 07:45:11;;;;;;;7.07;2.90;;;;;;;19.96;33.36;101463.88;5072125;28;20528;-64
2021/03/29 07:47:42;;;;;;;6.80;2.63;;;;;;;19.53;33.58;101462.19;5083981;28;20458;-62
2021/03/29 07:50:10;;;;;;;6.50;2.50;;;;;;;20.47;32.54;101458.97;5078367;28;20452;-63
2021/03/29 07:52:40;;;;;;;7.67;2.70;;;;;;;18.40;35.80;101459.03;5077946;28;20663;-63
2021/03/29 07:55:19;;;;;;;7.23;3.20;;;;;;;19.77;33.79;101459.66;5077462;28;20533;-62
2021/03/29 07:58:02;;;;;;;4.63;2.47;;;;;;;18.48;36.29;101460.94;5078579;28;20443;-62
2021/03/29 08:00:48;;;;;;;6.73;2.47;;;;;;;18.57;35.99;101455.38;5081444;28;20478;-62
2021/03/29 08:03:59;;;;;;;4.70;3.00;;;;;;;18.92;35.66;101468.88;5069332;28;20972;-62
2021/03/29 08:06:50;;;;;;;8.73;3.10;;;;;;;22.02;30.57;101471.66;5081498;28;20476;-63
2021/03/29 08:09:22;;;;;;;3.93;2.20;;;;;;;20.52;32.63;101456.56;5075177;28;20488;-63
2021/03/29 08:12:13;;;;;;;9.70;2.70;;;;;;;19.99;33.44;101472.50;5076416;28;20960;-61
2021/03/29 08:14:42;;;;;;;8.40;3.00;;;;;;;20.00;33.38;101476.94;5076700;28;20478;-62
2021/03/29 08:17:37;;;;;;;7.47;3.17;;;;;;;20.12;33.67;101469.28;5070909;28;20476;-61
2021/03/29 08:20:08;;;;;;;6.67;3.07;;;;;;;18.88;35.20;101478.38;5071924;28;20459;-60
2021/03/29 08:22:35;;;;;;;4.87;2.90;;;;;;;19.32;35.08;101478.09;5096677;28;20474;-62
2021/03/29 08:25:01;;;;;;;11.70;3.17;;;;;;;19.56;34.51;101478.13;5102696;28;20447;-61
2021/03/29 08:27:32;;;;;;;9.37;3.47;;;;;;;19.73;33.79;101467.25;5101475;28;21016;-61
2021/03/29 08:30:19;;;;;;;8.23;2.60;;;;;;;20.72;32.46;101480.63;5099212;28;20954;-61
2021/03/29 08:32:45;;;;;;;8.93;3.03;;;;;;;20.27;33.08;101474.81;5100755;28;20463;-63
2021/03/29 08:35:12;;;;;;;6.93;2.87;;;;;;;18.91;35.74;101472.63;5107516;28;20443;-62
2021/03/29 08:37:41;;;;;;;8.10;2.37;;;;;;;18.79;36.69;101475.59;5101429;28;20485;-63
2021/03/29 08:40:11;;;;;;;8.27;2.73;;;;;;;20.48;33.75;101480.53;5100276;28;20454;-62
2021/03/29 08:42:39;;;;;;;9.17;2.90;;;;;;;20.29;33.33;101480.91;5081385;28;20447;-63
2021/03/29 08:45:09;;;;;;;7.40;2.90;;;;;;;20.79;32.88;101493.31;5079905;28;21113;-62
2021/03/29 08:47:37;;;;;;;9.10;3.20;;;;;;;20.12;34.17;101477.41;5074943;28;20436;-63
2021/03/29 08:50:06;;;;;;;12.57;3.40;;;;;;;20.28;33.32;101481.94;5081507;28;20484;-62
2021/03/29 08:52:40;;;;;;;6.60;3.27;;;;;;;21.57;31.09;101485.19;5080004;28;20460;-62
2021/03/29 08:55:08;;;;;;;6.83;2.90;;;;;;;19.53;33.58;101497.44;5080986;28;20924;-62
2021/03/29 08:57:34;;;;;;;6.37;2.57;;;;;;;21.02;32.11;101479.78;5082022;28;20432;-63
2021/03/29 09:00:08;;;;;;;7.77;2.70;;;;;;;21.16;31.00;101480.00;5079494;28;20433;-63
2021/03/29 09:02:34;;;;;;;10.60;3.30;;;;;;;21.70;30.39;101498.16;5068809;28;20483;-65
2021/03/29 09:05:02;;;;;;;10.83;2.90;;;;;;;22.35;29.69;101486.63;5080605;28;20450;-65
2021/03/29 09:07:30;;;;;;;7.43;2.57;;;;;;;22.59;29.53;101492.84;5079252;28;20479;-63
2021/03/29 09:10:12;;;;;;;6.57;3.13;;;;;;;22.27;29.95;101494.03;5080815;28;20491;-62
2021/03/29 09:12:38;;;;;;;4.83;3.10;;;;;;;21.83;30.15;101492.13;4996065;28;20476;-61
2021/03/29 09:15:12;;;;;;;5.80;3.10;;;;;;;22.45;29.17;101489.09;4997623;28;20454;-64
2021/03/29 09:17:39;;;;;;;5.83;3.43;;;;;;;20.97;31.56;101501.22;4996822;28;20443;-62
2021/03/29 09:20:17;;;;;;;6.77;2.83;;;;;;;20.69;32.01;101490.81;4997171;28;20451;-62
2021/03/29 09:22:43;;;;;;;6.37;3.20;;;;;;;21.23;31.36;101500.88;4994532;28;20456;-65
2021/03/29 09:25:10;;;;;;;5.23;2.80;;;;;;;21.38;30.71;101508.25;4996585;28;20503;-64
2021/03/29 09:27:40;;;;;;;6.07;3.00;;;;;;;20.82;31.47;101506.56;4996250;28;20460;-64
2021/03/29 09:30:11;;;;;;;8.27;3.03;;;;;;;22.09;29.67;101503.41;4995263;28;20484;-64
2021/03/29 09:32:40;;;;;;;6.70;2.63;;;;;;;22.14;29.08;101500.97;4994547;28;20846;-66
2021/03/29 09:35:07;;;;;;;5.90;2.70;;;;;;;21.74;29.33;101508.50;4992023;28;20514;-63
2021/03/29 09:37:33;;;;;;;5.30;2.70;;;;;;;21.28;31.27;101505.75;5007956;28;20451;-63
2021/03/29 09:40:00;;;;;;;5.70;2.70;;;;;;;21.29;30.31;101501.19;5006601;28;20482;-63
2021/03/29 09:42:37;;;;;;;7.50;2.90;;;;;;;20.84;31.75;101507.22;5005824;28;21432;-62
2021/03/29 09:45:04;;;;;;;4.77;2.57;;;;;;;21.03;31.51;101502.38;5005768;28;20484;-61
2021/03/29 09:47:32;;;;;;;6.70;2.70;;;;;;;22.22;30.08;101508.22;5004749;28;20485;-62
2021/03/29 09:49:58;;;;;;;9.23;2.70;;;;;;;21.33;30.08;101510.66;5046294;28;20487;-62
2021/03/29 09:52:34;;;;;;;8.37;3.17;;;;;;;22.56;29.94;101507.69;5075060;28;20518;-62
2021/03/29 09:55:00;;;;;;;12.67;3.33;;;;;;;22.68;28.35;101515.38;5074214;28;20452;-62
2021/03/29 09:57:27;;;;;;;10.00;3.10;;;;;;;22.56;28.81;101525.91;5078106;28;20476;-62
2021/03/29 09:59:55;;;;;;;7.07;3.63;;;;;;;23.56;27.61;101529.84;5075965;28;20437;-63
2021/03/29 10:02:24;;;;;;;7.97;2.53;;;;;;;22.34;28.36;101525.84;5080849;28;20487;-63
2021/03/29 10:05:00;;;;;;;10.17;3.33;;;;;;;23.27;28.06;101520.72;5099143;28;20454;-62
2021/03/29 10:07:27;;;;;;;10.07;2.90;;;;;;;23.02;27.60;101522.94;5093473;28;20474;-63
2021/03/29 10:09:58;;;;;;;9.30;2.70;;;;;;;22.07;29.15;101529.16;5097009;28;20631;-63
2021/03/29 10:12:27;;;;;;;9.97;2.80;;;;;;;22.23;28.44;101533.59;5095880;28;20554;-63
2021/03/29 10:15:04;;;;;;;5.90;2.33;;;;;;;21.61;29.44;101521.88;5095859;28;20452;-63
2021/03/29 10:17:30;;;;;;;4.83;2.50;;;;;;;22.51;28.23;101526.47;5100359;28;20481;-63
2021/03/29 10:20:06;;;;;;;6.70;2.27;;;;;;;23.63;26.33;101529.91;5099260;28;20473;-63
2021/03/29 10:22:32;;;;;;;7.43;2.30;;;;;;;23.63;26.98;101519.00;5096712;28;20463;-62
2021/03/29 10:25:11;;;;;;;6.03;2.30;;;;;;;21.67;25.91;101526.59;5099287;28;20451;-62
2021/03/29 10:27:45;;;;;;;7.90;2.13;;;;;;;22.26;26.31;101517.72;5098440;28;20467;-63
2021/03/29 10:30:22;;;;;;;9.33;2.30;;;;;;;22.53;25.82;101523.56;5099545;28;20490;-63
2021/03/29 10:32:50;;;;;;;8.50;2.40;;;;;;;22.14;25.92;101524.66;5097944;28;20455;-62
2021/03/29 10:35:17;;;;;;;6.53;2.03;;;;;;;22.76;25.40;101528.91;5098674;28;20447;-63
2021/03/29 10:37:44;;;;;;;6.77;2.40;;;;;;;22.08;26.57;101518.06;5099095;28;21096;-62
2021/03/29 10:40:11;;;;;;;5.33;2.57;;;;;;;21.83;27.20;101520.16;5099148;28;20936;-63
2021/03/29 10:42:40;;;;;;;5.67;2.10;;;;;;;22.44;26.96;101511.91;5098410;28;20494;-62
2021/03/29 10:45:08;;;;;;;3.97;1.93;;;;;;;22.87;24.86;101513.94;5099074;28;20527;-62
2021/03/29 10:47:35;;;;;;;11.63;2.50;;;;;;;22.44;24.90;101519.25;5099654;28;20451;-62
2021/03/29 10:50:01;;;;;;;3.70;2.00;;;;;;;22.24;24.80;101522.50;5099713;28;20495;-63
2021/03/29 10:52:28;;;;;;;9.57;2.53;;;;;;;21.83;25.12;101524.78;5104054;28;20505;-62
2021/03/29 10:54:54;;;;;;;9.20;2.77;;;;;;;23.30;24.11;101520.34;5099818;28;20476;-64
2021/03/29 10:57:20;;;;;;;7.23;2.87;;;;;;;23.30;24.06;101520.34;5089863;28;20478;-64
2021/03/29 10:59:47;;;;;;;4.80;2.30;;;;;;;23.52;24.52;101520.34;5099369;28;20443;-62
2021/03/29 11:02:14;;;;;;;5.17;2.00;;;;;;;22.88;23.95;101516.50;5097721;28;20558;-62
2021/03/29 11:04:41;;;;;;;4.70;2.23;;;;;;;22.80;24.42;101513.03;5096065;28;20466;-63
2021/03/29 11:07:07;;;;;;;4.33;2.10;;;;;;;22.24;24.78;101516.19;5098586;28;20490;-63
2021/03/29 11:09:34;;;;;;;3.70;2.00;;;;;;;22.19;25.35;101506.72;5091427;28;20501;-63
2021/03/29 11:12:00;;;;;;;4.97;3.10;;;;;;;22.15;25.91;101518.16;5098226;28;20479;-62
2021/03/29 11:14:27;;;;;;;7.90;2.63;;;;;;;22.63;25.41;101517.84;5099536;28;20987;-62
2021/03/29 11:16:54;;;;;;;6.30;2.40;;;;;;;22.62;26.21;101516.13;5098947;28;20475;-63
2021/03/29 11:19:21;;;;;;;3.93;2.03;;;;;;;21.77;26.39;101510.88;5096544;28;20546;-62
2021/03/29 11:21:48;;;;;;;6.50;2.23;;;;;;;21.76;25.87;101521.94;5099698;28;20500;-62
2021/03/29 11:24:15;;;;;;;3.57;1.90;;;;;;;21.53;25.67;101519.25;5093016;28;20470;-62
2021/03/29 11:26:42;;;;;;;4.40;2.17;;;;;;;22.01;25.99;101517.09;5097756;28;20935;-63
2021/03/29 11:29:09;;;;;;;5.83;2.10;;;;;;;22.05;26.38;101521.16;5092632;28;20483;-63